- বাংলা English

 * * Phone: +880 29135742, 9123838, 9141437 | FAX: +880 2 8118230, 58152019*   

METAR

VGHS 191300Z 10007KT 4000 HZ SCT015 BKN100 28/23 Q1004 NOSIG=